Latest Coastal Weather Observations for Port Hedland

IDW60701

Issued at 2:03 pm WST Wednesday 26 April 2017 (issued every 10 minutes, with the page automatically refreshed every 10 minutes)

About coastal observations | Map of coastal stations | Coastal observations for WA | Marine services | Other Formats
Station Details ID: 004032 Name: PORT HEDLAND AIRPORT Lat: -20.37 Lon: 118.63 Height: 6.4 m
Data from the previous 72 hours. | See also: Recent months at Port Hedland
Date/Time
WST
Temp
°C
Wind Pressure Rain since
9am
mm
Weather Cloud Vis
km
Sea
Height
m
Swell
Dir  Spd
kts
Gust
kts
hPa Trend Height
m
Period
s
Dir
26/02:00pm 31.1 ESE 11 15 1013.4 - 0.0 - - 10 - - - -
26/01:30pm 30.6 ESE 12 17 1013.6 - 0.0 - - 10 - - - -
26/01:00pm 31.1 ESE 12 18 1013.7 - 0.0 - - 10 - - - -
26/12:30pm 31.2 ESE 13 18 1013.9 - 0.0 - - 10 - - - -
26/12:00pm 29.5 ESE 13 19 1014.4 - 0.0 - - 10 - - - -
26/11:30am 29.2 ESE 14 19 1014.8 - 0.0 - - 10 - - - -
26/11:00am 29.1 ESE 15 21 1015.5 - 0.0 - - 10 - - - -
26/10:30am 28.4 ESE 15 19 1016.1 - 0.0 - - 10 - - - -
26/10:00am 27.5 SE 11 16 1016.5 - 0.0 - - 10 - - - -
26/09:30am 27.2 SE 12 16 1016.5 - 0.0 - - 10 - - - -
26/09:00am 27.0 ESE 13 17 1016.0 - 0.0 - - 10 - - - -
26/08:30am 26.3 SSE 11 15 1016.0 - 0.0 - - 10 - - - -
26/08:00am 25.8 SSE 8 12 1015.9 - 0.0 - - 10 - - - -
26/07:30am 25.5 SSE 8 11 1015.7 - 0.0 - - 10 - - - -
26/07:00am 25.4 SE 6 9 1015.4 - 0.0 - - 10 - - - -
26/06:30am 25.4 SSE 7 8 1014.9 - 0.0 - - - - - - -
26/06:00am 26.2 ESE 9 15 1014.6 - 0.0 - - - - - - -
26/05:30am 25.9 ESE 8 10 1014.5 - 0.0 - - - - - - -
26/05:00am 26.1 SE 7 12 1014.3 - 0.0 - - - - - - -
26/04:30am 26.3 SE 7 10 1014.2 - 0.0 - - - - - - -
26/04:00am 26.6 SE 8 10 1014.1 - 0.0 - - - - - - -
26/03:30am 26.6 ESE 9 11 1014.2 - 0.0 - - - - - - -
26/03:00am 26.5 ESE 9 12 1014.1 - 0.0 - - - - - - -
26/02:30am 26.5 SE 8 11 1014.3 - 0.0 - - - - - - -
26/02:00am 26.0 SSE 7 10 1014.4 - 0.0 - - - - - - -
26/01:30am 25.6 SSE 6 7 1014.4 - 0.0 - - - - - - -
26/01:00am 25.5 SSE 6 9 1014.4 - 0.0 - - - - - - -
26/12:30am 26.0 S 7 10 1014.7 - 0.0 - - - - - - -
26/12:00am 25.9 S 5 7 1014.8 - 0.0 - - - - - - -
 
Date/Time
WST
Temp
°C
Wind Pressure Rain since
9am
mm
Weather Cloud Vis
km
Sea
Height
m
Swell
Dir  Spd
kts
Gust
kts
hPa Trend Height
m
Period
s
Dir
25/11:30pm 25.9 SSW 7 8 1014.8 - 0.0 - - - - - - -
25/11:00pm 25.4 E 5 6 1014.7 - 0.0 - - - - - - -
25/10:30pm 26.0 SSE 4 5 1014.8 - 0.0 - - - - - - -
25/10:00pm 26.5 SSE 5 6 1014.8 - 0.0 - - 10 - - - -
25/09:30pm 26.8 S 4 6 1014.9 - 0.0 - - 10 - - - -
25/09:00pm 27.1 S 6 8 1014.6 - 0.0 - - 10 - - - -
25/08:30pm 27.3 SSW 6 8 1014.6 - 0.0 - - 10 - - - -
25/08:00pm 27.6 SSW 7 9 1014.4 - 0.0 - - 10 - - - -
25/07:30pm 27.8 SSW 7 8 1014.4 - 0.0 - - 10 - - - -
25/07:00pm 28.0 SSW 7 9 1014.2 - 0.0 - - 10 - - - -
25/06:30pm 28.5 SSW 8 10 1013.9 - 0.0 - - 10 - - - -
25/06:00pm 29.0 SW 9 11 1013.6 - 0.0 - - 10 - - - -
25/05:30pm 29.5 SSW 9 12 1013.3 - 0.0 - - 10 - - - -
25/05:00pm 30.2 SSW 10 13 1012.8 - 0.0 - - 10 - - - -
25/04:30pm 30.8 SSW 10 13 1012.5 - 0.0 - - 10 - - - -
25/04:00pm 31.3 SW 11 15 1012.4 - 0.0 - - 10 - - - -
25/03:30pm 31.6 SSW 10 13 1012.2 - 0.0 - - 10 - - - -
25/03:00pm 31.8 SSW 9 13 1012.0 - 0.0 - - 10 - - - -
25/02:30pm 32.0 SSW 11 15 1012.1 - 0.0 - - 10 - - - -
25/02:00pm 31.8 SW 10 13 1012.2 - 0.0 - - 10 - - - -
25/01:30pm 32.3 SW 10 14 1012.2 - 0.0 - - 10 - - - -
25/01:00pm 32.4 SSW 9 13 1012.3 - 0.0 - - 10 - - - -
25/12:30pm 31.8 SSW 7 11 1012.5 - 0.0 - - 10 - - - -
25/12:00pm 32.1 SW 7 9 1012.8 - 0.0 - - 10 - - - -
25/11:30am 32.0 SW 8 11 1013.2 - 0.0 - - 10 - - - -
25/11:00am 32.0 S 6 11 1013.8 - 0.0 - - 10 - - - -
25/10:30am 31.6 S 6 9 1014.2 - 0.0 - - 10 - - - -
25/10:00am 30.0 S 7 11 1014.3 - 0.0 - - 10 - - - -
25/09:30am 29.1 SSW 9 11 1014.5 - 0.0 - - 10 - - - -
25/09:00am 28.9 SW 13 16 1014.6 - 0.0 - - - - - - -
25/08:30am 27.6 SW 9 13 1014.5 - 0.0 - - - - - - -
25/08:00am 26.9 WSW 9 13 1014.3 - 0.0 - - - - - - -
25/07:30am 25.4 WSW 9 11 1014.1 - 0.0 - - - - - - -
25/07:00am 24.2 WSW 7 9 1014.0 - 0.0 - - - - - - -
25/06:30am 23.9 SW 7 9 1013.7 - 0.0 - - - - - - -
25/06:00am 24.0 SW 7 8 1013.5 - 0.0 - - - - - - -
25/05:30am 24.0 SW 7 8 1013.6 - 0.0 - - - - - - -
25/05:00am 23.8 SW 6 6 1013.3 - 0.0 - - - - - - -
25/04:30am 23.8 SW 7 7 1013.1 - 0.0 - - - - - - -
25/04:00am 23.8 SW 4 5 1012.9 - 0.0 - - - - - - -
25/03:30am 23.9 SSW 5 6 1012.8 - 0.0 - - - - - - -
25/03:00am 24.0 SW 4 5 1012.8 - 0.0 - - - - - - -
25/02:30am 24.3 SW 4 5 1012.8 - 0.0 - - - - - - -
25/02:00am 24.6 SW 4 5 1012.9 - 0.0 - - - - - - -
25/01:30am 24.7 SSW 3 5 1013.0 - 0.0 - - - - - - -
25/01:00am 24.6 WSW 4 5 1013.1 - 0.0 - - - - - - -
25/12:30am 25.1 W 5 6 1013.2 - 0.0 - - - - - - -
25/12:00am 25.1 W 5 7 1013.2 - 0.0 - - - - - - -
 
Date/Time
WST
Temp
°C
Wind Pressure Rain since
9am
mm
Weather Cloud Vis
km
Sea
Height
m
Swell
Dir  Spd
kts
Gust
kts
hPa Trend Height
m
Period
s
Dir
24/11:30pm 25.1 W 6 6 1013.3 - 0.0 - - - - - - -
24/11:00pm 24.9 WSW 6 7 1013.4 - 0.0 - - - - - - -
24/10:30pm 25.0 WSW 5 6 1013.4 - 0.0 - - - - - - -
24/10:00pm 25.2 W 5 6 1013.5 - 0.0 - - - - - - -
24/09:30pm 25.6 W 6 7 1013.6 - 0.0 - - - - - - -
24/09:00pm 25.6 W 6 7 1013.4 - 0.0 - - - - - - -
24/08:30pm 26.2 W 7 8 1013.4 - 0.0 - - - - - - -
24/08:00pm 26.1 W 7 8 1013.1 - 0.0 - - - - - - -
24/07:30pm 26.7 W 8 9 1012.9 - 0.0 - - - - - - -
24/07:00pm 27.2 W 9 11 1012.7 - 0.0 - - 10 - - - -
24/06:30pm 27.5 WNW 9 10 1012.4 - 0.0 - - 10 - - - -
24/06:00pm 28.1 WNW 10 14 1012.1 - 0.0 - - 10 - - - -
24/05:30pm 29.3 WNW 10 12 1011.9 - 0.0 - - 10 - - - -
24/05:00pm 29.8 NW 12 16 1011.8 - 0.0 - - 10 - - - -
24/04:30pm 30.3 NW 11 14 1011.6 - 0.0 - - 10 - - - -
24/04:00pm 29.9 NNW 12 15 1011.4 - 0.0 - - 10 - - - -
24/03:30pm 31.0 NW 12 14 1011.3 - 0.0 - - 10 - - - -
24/03:00pm 31.1 NW 10 13 1011.1 - 0.0 - - 10 - - - -
24/02:30pm 31.1 NNW 9 11 1011.3 - 0.0 - - 10 - - - -
24/02:00pm 31.4 NNW 9 12 1011.4 - 0.0 - - 10 - - - -
24/01:30pm 31.9 N 9 11 1011.6 - 0.0 - - 10 - - - -
24/01:00pm 32.5 N 6 8 1011.9 - 0.0 - - 10 - - - -
24/12:30pm 32.6 NNE 5 7 1012.1 - 0.0 - - 10 - - - -
24/12:00pm 31.6 NNE 6 8 1012.5 - 0.0 - - 10 - - - -
24/11:30am 31.6 NNE 5 7 1013.2 - 0.0 - - 10 - - - -
24/11:00am 30.2 NNE 5 7 1013.8 - 0.0 - - 10 - - - -
24/10:30am 29.7 NNE 5 7 1014.4 - 0.0 - - 10 - - - -
24/10:00am 29.1 NNE 6 9 1014.7 - 0.0 - - 10 - - - -
24/09:30am 28.6 NNE 6 8 1014.9 - 0.0 - - 10 - - - -
24/09:00am 28.9 SE 4 6 1014.6 R 0.0 Fine Mostly clear 30 - - - -
24/08:30am 27.6 SE 5 6 1014.6 - 0.0 - - 10 - - - -
24/08:00am 27.1 ESE 4 5 1014.6 - 0.0 - - 10 - - - -
24/07:30am 25.7 ESE 4 6 1014.4 - 0.0 - - - - - - -
24/07:00am 24.8 SE 4 6 1014.1 - 0.0 - - 10 - - - -
24/06:30am 23.7 S 5 6 1013.7 - 0.0 - - 10 - - - -
24/06:00am 23.9 SSW 4 5 1013.3 - 0.0 - - 10 - - - -
24/05:30am 24.0 SW 4 4 1013.3 - 0.0 - - - - - - -
24/05:00am 24.0 SW 5 5 1013.1 - 0.0 - - - - - - -
24/04:30am 24.0 WSW 6 6 1012.9 - 0.0 - - - - - - -
24/04:00am 24.2 WSW 6 7 1012.9 - 0.0 - - - - - - -
24/03:30am 24.4 WSW 6 7 1012.9 - 0.0 - - - - - - -
24/03:00am 24.6 WSW 7 8 1012.9 - 0.0 - - - - - - -
24/02:30am 24.8 WSW 7 8 1012.9 - 0.0 - - - - - - -
24/02:00am 24.7 WSW 7 9 1013.0 - 0.0 - - - - - - -
24/01:30am 24.8 WSW 6 7 1013.2 - 0.0 - - - - - - -
24/01:00am 24.6 WSW 6 7 1013.5 - 0.0 - - - - - - -
24/12:30am 24.7 WSW 4 5 1013.9 - 0.0 - - - - - - -
24/12:00am 24.8 WSW 5 6 1013.9 - 0.0 - - - - - - -
 
Date/Time
WST
Temp
°C
Wind Pressure Rain since
9am
mm
Weather Cloud Vis
km
Sea
Height
m
Swell
Dir  Spd
kts
Gust
kts
hPa Trend Height
m
Period
s
Dir
23/11:30pm 25.0 WSW 6 7 1013.9 - 0.0 - - - - - - -
23/11:00pm 25.1 WSW 6 7 1014.1 - 0.0 - - - - - - -
23/10:30pm 25.3 WSW 6 7 1014.1 - 0.0 - - - - - - -
23/10:00pm 25.4 WSW 5 6 1014.3 - 0.0 - - - - - - -
23/09:30pm 25.7 WSW 6 6 1014.1 - 0.0 - - - - - - -
23/09:00pm 26.0 W 6 7 1013.9 - 0.0 - - - - - - -
23/08:30pm 26.4 W 5 6 1013.8 - 0.0 - - - - - - -
23/08:00pm 26.8 W 5 6 1013.4 - 0.0 - - - - - - -
23/07:30pm 26.9 WNW 7 7 1013.0 - 0.0 - - - - - - -
23/07:00pm 27.4 WNW 7 7 1012.4 - 0.0 - - 10 - - - -
23/06:30pm 28.0 NW 7 9 1012.1 - 0.0 - - 10 - - - -
23/06:00pm 28.8 NW 7 9 1011.7 - 0.0 - - 10 - - - -
23/05:30pm 30.3 WNW 8 11 1011.6 - 0.0 - - 10 - - - -
23/05:00pm 31.5 NW 9 11 1011.4 - 0.0 - - 10 - - - -
23/04:30pm 32.2 NW 9 12 1011.2 - 0.0 - - 10 - - - -
23/04:00pm 32.5 NW 9 11 1011.2 - 0.0 - - 10 - - - -
23/03:30pm 32.8 NW 11 13 1011.0 - 0.0 - - 10 - - - -
23/03:00pm 33.1 NW 11 14 1010.9 - 0.0 - - 10 - - - -
23/02:30pm 33.4 NNW 10 13 1011.2 - 0.0 - - 10 - - - -

Other Formats:

Comma delimited format used in spreadsheet applications
http://www.bom.gov.au/fwo/IDW60701/IDW60701.94312.axf

JavaScript Object Notation format (JSON) in row-major order
http://www.bom.gov.au/fwo/IDW60701/IDW60701.94312.json